createdAt,value
2022-10-03T00:03:33.830Z,89.32
2022-10-03T00:08:47.738Z,88.70
2022-10-03T00:14:19.044Z,88.81
2022-10-03T00:19:48.491Z,89.19
2022-10-03T00:24:59.041Z,89.11
2022-10-03T00:30:13.400Z,88.66
2022-10-03T00:35:44.760Z,88.96
2022-10-03T00:40:55.775Z,88.64
2022-10-03T00:46:06.714Z,88.87
2022-10-03T00:51:25.850Z,88.84
2022-10-03T00:56:45.922Z,88.84
2022-10-03T01:01:50.031Z,88.87
2022-10-03T01:07:13.549Z,88.94
2022-10-03T01:12:33.706Z,88.69
2022-10-03T01:17:48.009Z,88.75
2022-10-03T01:23:07.714Z,88.60
2022-10-03T01:28:37.080Z,88.94
2022-10-03T01:34:00.871Z,88.75
2022-10-03T01:39:26.537Z,88.76
2022-10-03T01:44:30.873Z,88.68
2022-10-03T01:50:13.052Z,88.83
2022-10-03T01:55:28.250Z,88.72
2022-10-03T02:00:56.656Z,88.76
2022-10-03T02:06:14.925Z,88.70
2022-10-03T02:11:40.496Z,89.05
2022-10-03T02:16:58.255Z,88.49
2022-10-03T02:22:00.605Z,88.80
2022-10-03T02:27:11.823Z,88.70
2022-10-03T02:32:46.715Z,88.74
2022-10-03T02:38:11.672Z,88.94
2022-10-03T02:43:25.573Z,88.91
2022-10-03T02:48:52.094Z,88.77
2022-10-03T02:54:05.611Z,88.51
2022-10-03T02:59:15.474Z,88.51
2022-10-03T03:04:52.201Z,88.38
2022-10-03T03:10:09.160Z,88.36
2022-10-03T03:15:28.929Z,88.34
2022-10-03T03:20:39.048Z,88.29
2022-10-03T03:25:52.519Z,88.35
2022-10-03T03:31:03.775Z,88.28
2022-10-03T03:36:24.397Z,88.36
2022-10-03T03:41:51.028Z,88.19
2022-10-03T03:47:19.646Z,87.88
2022-10-03T03:52:46.391Z,87.85
2022-10-03T03:58:07.182Z,87.90
2022-10-03T04:03:30.822Z,87.78
2022-10-03T04:08:41.525Z,87.89
2022-10-03T04:14:21.855Z,87.63
2022-10-03T04:19:38.665Z,87.75
2022-10-03T04:24:58.563Z,87.47
2022-10-03T04:30:11.598Z,87.32
2022-10-03T04:35:28.463Z,87.63
2022-10-03T04:40:47.967Z,87.32
2022-10-03T04:45:55.810Z,87.07
2022-10-03T04:51:12.777Z,86.83
2022-10-03T04:56:23.711Z,86.97
2022-10-03T05:01:50.681Z,86.75
2022-10-03T05:07:13.989Z,86.60
2022-10-03T05:12:20.944Z,86.14
2022-10-03T05:17:42.478Z,85.59
2022-10-03T05:22:49.816Z,85.81
2022-10-03T05:28:01.331Z,85.11
2022-10-03T05:33:10.345Z,84.34
2022-10-03T05:38:34.865Z,83.47
2022-10-03T05:43:58.635Z,83.90
2022-10-03T05:49:19.300Z,82.97
2022-10-03T05:54:33.159Z,82.65
2022-10-03T05:59:49.319Z,82.68
2022-10-03T06:05:02.983Z,82.40
2022-10-03T06:10:14.384Z,82.44
2022-10-03T06:15:54.672Z,82.34
2022-10-03T06:21:14.686Z,81.73
2022-10-03T06:26:40.098Z,81.24
2022-10-03T06:32:06.920Z,81.25
2022-10-03T06:37:46.262Z,80.75
2022-10-03T06:43:16.296Z,80.05
2022-10-03T06:48:29.840Z,79.88
2022-10-03T06:53:34.385Z,79.73
2022-10-03T06:58:57.719Z,79.31
2022-10-03T07:04:24.144Z,79.22
2022-10-03T07:09:29.529Z,79.80
2022-10-03T07:14:41.802Z,78.97
2022-10-03T07:20:04.856Z,78.82
2022-10-03T07:25:21.945Z,78.38
2022-10-03T07:30:25.778Z,77.19
2022-10-03T07:35:58.506Z,78.32
2022-10-03T07:41:02.850Z,77.47
2022-10-03T07:46:36.468Z,77.07
2022-10-03T07:52:16.343Z,76.47
2022-10-03T07:57:38.117Z,75.51
2022-10-03T08:02:58.008Z,75.32
2022-10-03T08:08:25.510Z,75.52
2022-10-03T08:13:55.120Z,75.00
2022-10-03T08:19:18.664Z,73.95
2022-10-03T08:24:45.466Z,74.40
2022-10-03T08:30:17.764Z,74.88
2022-10-03T08:35:50.278Z,74.63
2022-10-03T08:41:10.126Z,73.45
2022-10-03T08:46:39.778Z,71.52
2022-10-03T08:52:21.388Z,71.55
2022-10-03T08:57:45.364Z,69.76
2022-10-03T09:03:43.037Z,69.09
2022-10-03T09:08:57.278Z,70.07
2022-10-03T09:14:11.002Z,68.14
2022-10-03T09:19:38.653Z,68.16
2022-10-03T09:25:02.541Z,66.67
2022-10-03T09:30:04.358Z,66.47
2022-10-03T09:35:33.499Z,65.76
2022-10-03T09:41:12.845Z,65.27
2022-10-03T09:47:18.427Z,65.92
2022-10-03T09:52:33.220Z,65.42
2022-10-03T09:57:46.801Z,66.25
2022-10-03T10:03:06.655Z,65.64
2022-10-03T10:08:26.505Z,65.98
2022-10-03T10:13:49.738Z,65.28
2022-10-03T10:19:14.154Z,64.00
2022-10-03T10:24:36.676Z,64.43
2022-10-03T10:29:53.446Z,64.05
2022-10-03T10:35:23.277Z,63.88
2022-10-03T10:40:43.948Z,63.30
2022-10-03T10:46:00.816Z,62.63
2022-10-03T10:51:42.622Z,64.02
2022-10-03T10:57:07.954Z,62.19
2022-10-03T11:02:18.491Z,63.21
2022-10-03T11:07:45.789Z,64.01
2022-10-03T11:12:53.174Z,65.24
2022-10-03T11:18:22.614Z,64.79
2022-10-03T11:23:39.927Z,64.45
2022-10-03T11:29:06.593Z,62.00
2022-10-03T11:34:29.925Z,62.07
2022-10-03T11:39:41.997Z,61.90
2022-10-03T11:45:01.145Z,61.56
2022-10-03T11:50:20.995Z,61.96
2022-10-03T11:55:48.331Z,61.66
2022-10-03T12:01:02.003Z,61.36
2022-10-03T12:06:33.052Z,61.54
2022-10-03T12:11:44.326Z,62.08
2022-10-03T12:16:58.461Z,61.98
2022-10-03T12:22:21.342Z,61.25
2022-10-03T12:27:41.680Z,62.33
2022-10-03T12:32:52.234Z,62.66
2022-10-03T12:38:34.638Z,62.09
2022-10-03T12:44:08.566Z,61.08
2022-10-03T12:49:26.350Z,62.10
2022-10-03T12:54:34.511Z,60.96
2022-10-03T12:59:42.224Z,60.70
2022-10-03T13:04:59.508Z,60.91
2022-10-03T13:10:04.133Z,61.00
2022-10-03T13:15:43.121Z,60.09
2022-10-03T13:20:59.869Z,59.99
2022-10-03T13:26:31.595Z,59.43
2022-10-03T13:31:35.324Z,60.12
2022-10-03T13:36:50.165Z,60.48
2022-10-03T13:42:32.143Z,59.74
2022-10-03T13:48:13.708Z,59.85
2022-10-03T13:53:40.255Z,60.62
2022-10-03T13:59:17.685Z,60.48
2022-10-03T14:04:35.321Z,60.34
2022-10-03T14:09:39.369Z,60.12
2022-10-03T14:14:53.497Z,59.02
2022-10-03T14:20:27.183Z,59.21
2022-10-03T14:25:39.056Z,60.04
2022-10-03T14:31:05.603Z,60.45
2022-10-03T14:36:19.942Z,61.40
2022-10-03T14:41:30.613Z,61.54
2022-10-03T14:46:39.917Z,62.07
2022-10-03T14:51:55.016Z,62.31
2022-10-03T14:56:58.839Z,62.16
2022-10-03T15:02:20.364Z,62.08
2022-10-03T15:07:36.530Z,62.58
2022-10-03T15:12:41.371Z,60.25
2022-10-03T15:17:52.746Z,60.49
2022-10-03T15:22:58.421Z,60.96
2022-10-03T15:28:06.336Z,61.16
2022-10-03T15:33:34.648Z,61.09
2022-10-03T15:38:41.886Z,61.82
2022-10-03T15:43:44.124Z,62.58
2022-10-03T15:48:51.154Z,63.18
2022-10-03T15:53:58.412Z,63.56
2022-10-03T15:59:06.544Z,64.32
2022-10-03T16:04:19.764Z,63.01
2022-10-03T16:09:39.258Z,63.88
2022-10-03T16:14:53.351Z,64.39
2022-10-03T16:19:58.804Z,64.93
2022-10-03T16:25:16.217Z,65.33
2022-10-03T16:30:22.346Z,66.11
2022-10-03T16:35:31.298Z,65.97
2022-10-03T16:40:37.873Z,66.02
2022-10-03T16:45:47.292Z,66.64
2022-10-03T16:50:53.476Z,66.85
2022-10-03T16:56:03.585Z,67.39
2022-10-03T17:01:50.022Z,67.77
2022-10-03T17:06:57.134Z,68.33
2022-10-03T17:12:00.904Z,68.67
2022-10-03T17:17:25.645Z,69.22
2022-10-03T17:22:37.893Z,69.25
2022-10-03T17:27:41.817Z,69.22
2022-10-03T17:32:45.479Z,69.23
2022-10-03T17:37:53.916Z,70.20
2022-10-03T17:43:05.863Z,70.28
2022-10-03T17:48:23.087Z,70.21
2022-10-03T17:53:29.372Z,70.39
2022-10-03T17:58:33.016Z,70.65
2022-10-03T18:03:44.781Z,70.63
2022-10-03T18:08:50.424Z,70.92
2022-10-03T18:14:35.710Z,71.00
2022-10-03T18:19:40.346Z,71.08
2022-10-03T18:25:32.589Z,71.26
2022-10-03T18:30:45.577Z,71.77
2022-10-03T18:35:49.694Z,72.06
2022-10-03T18:40:58.147Z,72.59
2022-10-03T18:46:15.417Z,72.55
2022-10-03T18:51:31.388Z,72.95
2022-10-03T18:56:34.233Z,72.72
2022-10-03T19:01:45.324Z,72.88
2022-10-03T19:06:51.888Z,73.59
2022-10-03T19:12:12.186Z,73.47
2022-10-03T19:17:36.089Z,73.71
2022-10-03T19:22:40.835Z,73.44
2022-10-03T19:27:52.306Z,73.40
2022-10-03T19:32:59.134Z,73.18
2022-10-03T19:38:06.250Z,72.98
2022-10-03T19:43:49.494Z,73.38
2022-10-03T19:49:00.233Z,73.64
2022-10-03T19:54:27.737Z,74.30
2022-10-03T20:00:00.637Z,74.08
2022-10-03T20:05:02.630Z,73.57
2022-10-03T20:10:32.661Z,74.43
2022-10-03T20:15:38.637Z,74.02
2022-10-03T20:20:41.100Z,74.07
2022-10-03T20:26:00.276Z,74.29
2022-10-03T20:31:02.105Z,74.34
2022-10-03T20:36:13.786Z,74.64
2022-10-03T20:41:52.456Z,75.38
2022-10-03T20:47:15.833Z,75.46
2022-10-03T20:52:21.328Z,75.08
2022-10-03T20:57:44.240Z,74.93
2022-10-03T21:02:59.370Z,75.47
2022-10-03T21:08:14.704Z,74.90
2022-10-03T21:13:36.146Z,75.05
2022-10-03T21:18:41.101Z,74.55
2022-10-03T21:23:57.509Z,74.33
2022-10-03T21:29:24.512Z,74.27
2022-10-03T21:34:46.508Z,73.70
2022-10-03T21:39:54.602Z,73.92
2022-10-03T21:45:11.485Z,72.85
2022-10-03T21:50:37.416Z,73.05
2022-10-03T21:56:12.766Z,72.16
2022-10-03T22:01:17.101Z,72.99
2022-10-03T22:06:22.298Z,72.91
2022-10-03T22:11:30.672Z,72.45
2022-10-03T22:16:39.865Z,72.32
2022-10-03T22:21:49.889Z,71.85
2022-10-03T22:27:20.936Z,71.76
2022-10-03T22:32:34.838Z,71.30
2022-10-03T22:37:37.611Z,71.35
2022-10-03T22:42:44.514Z,71.43
2022-10-03T22:47:51.969Z,71.36
2022-10-03T22:52:54.251Z,71.26
2022-10-03T22:57:57.283Z,71.44
2022-10-03T23:03:07.314Z,71.04
2022-10-03T23:08:46.753Z,71.31
2022-10-03T23:13:49.733Z,71.44
2022-10-03T23:19:22.765Z,71.53
2022-10-03T23:24:46.630Z,71.55
2022-10-03T23:30:11.461Z,71.56
2022-10-03T23:35:20.433Z,71.77
2022-10-03T23:40:45.387Z,71.97
2022-10-03T23:45:50.598Z,72.24
2022-10-03T23:51:06.058Z,72.14
2022-10-03T23:56:26.662Z,72.64
